Details From EDFH - Frankfurt Hahn
To EDFM - Mannheim City
Flight Number -
Tags generated
Created
Modified
Stats Distance 56 nm / 104 km
Max Altitude 1,000 ft / 305 m
Waypoints 3
Social Downloads 0
Likes 0
Share

Download

Looking for another format? Having issues loading an existing format? Contact us
Advertisement - Login to hide

Notes

Basic altitude profile: - Ascent Rate: 2500ft/min - Ascent Speed: 250kts - Cruise Altitude: 35000ft - Cruise Speed: 420kts - Descent Rate: 1500ft/min - Descent Speed: 250kts Options: - Use NATs: yes - Use PACOTS: yes - Use low airways: yes - Use high airways: yes

Route

EDFH ABSIX EDFM

ID Type Via Altitude (ft/m) Position (lat/lon) Dist (leg/tot) Name
O EDFH APT - 0 / 0 49.94580 / 7.26108 - / 0 nm Frankfurt Hahn
ABSIX FIX - 1,000 / 305 49.92940 / 7.33028 2 / 2 nm
O EDFM APT - 0 / 0 49.47310 / 8.51439 53 / 56 nm Mannheim City

Altitude Profile

Advertisement - Login to hide

EDFH

Details ICAO EDFH (HHN)
Name Frankfurt Hahn
Region Germany - Civil
Timezone Europe/Berlin (UTC+2.0)
Stats Elevation 1,647 ft / 502 m (AMSL)
Location 49.945800° 7.261080°
Runways 1
Magnetic Variation 2.825° E

METAR

EDFH 242120Z 17003KT 130V230 9999 SCT041 11/09 Q1017

Decode

TAF

TAF AMD EDFH 241822Z 2418/2518 30005KT 9999 SCT030 BECMG 2418/2420 24004KT TEMPO 2418/2420 SHRA BKN020CB PROB30 TEMPO 2418/2420 4000 TSRA BECMG 2423/2502 BKN010 TEMPO 2500/2507 1200 BR BKN004 PROB30 TEMPO 2501/2506 0400 FG VV001 BECMG 2508/2511 BKN015 PROB30 TEMPO 2512/2515 SHRA BKN035CB

Decode

Departure Runways

ID Width Length Bearing (true/mag) Surface Threshold Overrun Markings Lighting
03 148 ft / 45 m 12,457 ft / 3,797 m 32.37° / 29.55° ASPHALT 3,461 ft / 1,055 m 184 ft / 56 m PREC-APP CENTERLINE EDGE THRESHOLD ALSF-I TDZ REIL-OMNI
21 148 ft / 45 m 12,457 ft / 3,797 m 212.39° / 209.57° ASPHALT 984 ft / 300 m 0 ft / 0 m PREC-APP CENTERLINE EDGE THRESHOLD ALSF-I TDZ REIL-OMNI

EDFM

Details ICAO EDFM (MHG)
Name Mannheim City
Region Germany - Civil
Timezone Europe/Berlin (UTC+2.0)
Stats Elevation 309 ft / 94 m (AMSL)
Location 49.473100° 8.514390°
Runways 2
Magnetic Variation 3.161° E

METAR

EDFM 242120Z AUTO 14003KT 110V190 9999 // FEW034/// BKN100/// BKN130/// 15/12 Q1018

Decode

TAF

Not found

Destination Runways

ID Width Length Bearing (true/mag) Surface Threshold Overrun Markings Lighting
09 82 ft / 25 m 3,476 ft / 1,060 m 93.02° / 89.86° ASPHALT 0 ft / 0 m 0 ft / 0 m PREC-APP EDGE THRESHOLD REIL-OMNI
09L 98 ft / 30 m 2,290 ft / 698 m 93.00° / 89.84° GRASS 246 ft / 75 m 0 ft / 0 m NONE
27 82 ft / 25 m 3,476 ft / 1,060 m 273.04° / 269.87° ASPHALT 180 ft / 55 m 0 ft / 0 m PREC-APP EDGE THRESHOLD MALSF REIL-OMNI
27R 98 ft / 30 m 2,290 ft / 698 m 273.00° / 269.84° GRASS 82 ft / 25 m 0 ft / 0 m NONE

Approach Navaids

Runway Type Ident Frequency Range Bearing (true/mag) Slope Elevation
27 LOC-LOC IMAW 108.55 MHz 18 nm / 33 km 274.02° / 270.86 ° - 309 ft / 94 m (AMSL)

Popular Alternatives